Time;durP1;ratioP1;P1;durP2;ratioP2;P2;SDS_P1;SDS_P2;PMS_P1;PMS_P2;Temp;Humidity;BMP_temperature;BMP_pressure;BME280_temperature;BME280_humidity;BME280_pressure;Samples;Min_cycle;Max_cycle;Signal;HPM_P1;HPM_P2
2021/01/22 00:01:13;;;;;;;2.38;1.00;;;9.40;97.90;;;;;;4990059;28;20473;-65
2021/01/22 00:03:39;;;;;;;1.92;0.80;;;9.50;98.10;;;;;;4991109;28;20195;-65
2021/01/22 00:06:05;;;;;;;2.95;0.90;;;9.60;98.10;;;;;;4991480;28;20030;-65
2021/01/22 00:08:30;;;;;;;1.67;0.70;;;9.60;98.30;;;;;;4991352;28;20038;-64
2021/01/22 00:10:56;;;;;;;2.22;0.80;;;9.80;98.50;;;;;;4991353;28;20026;-65
2021/01/22 00:13:21;;;;;;;1.80;0.70;;;9.70;99.00;;;;;;4991125;28;20320;-64
2021/01/22 00:15:47;;;;;;;2.05;0.80;;;9.60;99.10;;;;;;4991219;28;20030;-64
2021/01/22 00:18:12;;;;;;;2.30;0.85;;;9.70;98.80;;;;;;4991283;28;20101;-64
2021/01/22 00:20:38;;;;;;;2.90;0.77;;;9.70;98.90;;;;;;4991228;28;20489;-64
2021/01/22 00:23:04;;;;;;;3.00;0.70;;;9.60;98.70;;;;;;4989699;28;20441;-64
2021/01/22 00:25:29;;;;;;;1.92;0.70;;;9.60;98.50;;;;;;4994761;28;20077;-64
2021/01/22 00:27:55;;;;;;;3.58;0.80;;;9.60;98.30;;;;;;4993761;28;20031;-64
2021/01/22 00:30:21;;;;;;;1.88;0.70;;;9.50;98.20;;;;;;4995037;28;20157;-64
2021/01/22 00:32:46;;;;;;;1.98;0.75;;;9.50;98.20;;;;;;4993423;28;20033;-64
2021/01/22 00:35:12;;;;;;;3.22;0.90;;;9.40;98.00;;;;;;4994939;28;20022;-64
2021/01/22 00:37:38;;;;;;;1.95;0.77;;;9.60;97.40;;;;;;4994981;28;20097;-64
2021/01/22 00:40:05;;;;;;;1.23;0.50;;;9.50;97.50;;;;;;4994924;28;20118;-64
2021/01/22 00:42:30;;;;;;;2.10;0.80;;;9.40;97.80;;;;;;4994475;28;20481;-65
2021/01/22 00:44:56;;;;;;;2.05;0.70;;;9.50;97.30;;;;;;4994670;28;20060;-65
2021/01/22 00:47:22;;;;;;;2.65;0.80;;;9.80;96.50;;;;;;4994893;28;20049;-64
2021/01/22 00:49:47;;;;;;;3.40;0.55;;;9.80;96.30;;;;;;4994711;28;20429;-64
2021/01/22 00:52:13;;;;;;;3.20;1.05;;;9.70;96.40;;;;;;4994550;28;20077;-65
2021/01/22 00:54:38;;;;;;;2.42;0.80;;;9.60;96.50;;;;;;4994591;28;20102;-64
2021/01/22 00:57:04;;;;;;;2.35;0.70;;;9.60;96.90;;;;;;4994636;28;20023;-65
2021/01/22 00:59:30;;;;;;;2.45;0.90;;;9.50;96.60;;;;;;4994838;28;20022;-65
2021/01/22 01:01:55;;;;;;;1.80;0.77;;;9.20;97.40;;;;;;4994531;28;20034;-65
2021/01/22 01:04:21;;;;;;;3.33;0.50;;;9.10;97.50;;;;;;4994576;28;20019;-65
2021/01/22 01:06:46;;;;;;;1.95;0.95;;;8.90;98.10;;;;;;4994541;28;20034;-64
2021/01/22 01:09:12;;;;;;;1.17;0.50;;;9.10;97.20;;;;;;4994576;28;20030;-64
2021/01/22 01:11:37;;;;;;;2.00;0.77;;;9.10;97.20;;;;;;4994455;28;20504;-65
2021/01/22 01:14:03;;;;;;;1.60;0.60;;;8.90;97.50;;;;;;4992848;28;20025;-65
2021/01/22 01:16:29;;;;;;;1.02;0.50;;;8.70;98.10;;;;;;4994320;28;20072;-65
2021/01/22 01:18:54;;;;;;;1.77;0.50;;;8.60;98.30;;;;;;4994265;28;20081;-65
2021/01/22 01:21:20;;;;;;;0.82;0.60;;;8.60;98.10;;;;;;4994285;28;20030;-64
2021/01/22 01:23:46;;;;;;;1.58;0.60;;;8.50;98.50;;;;;;4993941;28;20109;-65
2021/01/22 01:26:11;;;;;;;1.80;0.73;;;8.50;98.50;;;;;;4994141;28;20045;-64
2021/01/22 01:28:37;;;;;;;2.22;0.60;;;8.60;98.20;;;;;;4994006;28;20022;-64
2021/01/22 01:31:02;;;;;;;2.65;0.70;;;8.50;98.50;;;;;;4994008;28;20097;-65
2021/01/22 01:33:28;;;;;;;5.13;0.90;;;8.50;98.30;;;;;;4993685;28;20084;-64
2021/01/22 01:35:53;;;;;;;3.30;0.80;;;8.70;97.80;;;;;;4993430;28;20023;-65
2021/01/22 01:38:19;;;;;;;3.45;0.80;;;8.70;97.70;;;;;;4994243;28;20077;-65
2021/01/22 01:40:45;;;;;;;1.40;0.73;;;8.70;98.00;;;;;;4993915;28;20023;-64
2021/01/22 01:43:11;;;;;;;1.63;0.70;;;8.50;98.50;;;;;;4993527;28;20030;-64
2021/01/22 01:45:39;;;;;;;4.38;0.88;;;8.40;98.20;;;;;;4993761;28;20026;-65
2021/01/22 01:48:07;;;;;;;3.38;0.90;;;8.30;98.40;;;;;;4993775;28;20029;-64
2021/01/22 01:50:33;;;;;;;3.05;0.95;;;8.20;98.50;;;;;;4993641;28;20061;-65
2021/01/22 01:52:59;;;;;;;3.05;1.05;;;8.10;98.10;;;;;;4993385;28;20497;-65
2021/01/22 01:55:25;;;;;;;2.20;0.98;;;8.10;98.10;;;;;;4993432;28;20034;-64
2021/01/22 01:57:51;;;;;;;4.45;1.20;;;8.20;97.70;;;;;;4993517;28;20533;-65
2021/01/22 02:00:17;;;;;;;3.92;1.23;;;8.10;97.80;;;;;;4993571;28;20396;-65
2021/01/22 02:02:42;;;;;;;3.60;1.27;;;8.00;97.50;;;;;;4993115;28;20026;-65
2021/01/22 02:05:08;;;;;;;3.55;1.27;;;8.00;97.40;;;;;;4993342;28;20037;-65
2021/01/22 02:07:34;;;;;;;2.80;1.05;;;7.90;97.40;;;;;;4993341;28;20030;-64
2021/01/22 02:09:59;;;;;;;2.50;1.23;;;8.00;96.90;;;;;;4993347;28;20041;-65
2021/01/22 02:12:26;;;;;;;4.50;1.27;;;7.90;97.00;;;;;;4992991;28;20045;-64
2021/01/22 02:14:54;;;;;;;3.00;1.20;;;8.10;96.70;;;;;;4993170;28;20085;-64
2021/01/22 02:17:19;;;;;;;3.33;1.20;;;8.00;97.10;;;;;;4993191;28;20097;-64
2021/01/22 02:20:23;;;;;;;4.15;1.48;;;8.00;96.70;;;;;;4993112;28;20113;-64
2021/01/22 02:22:53;;;;;;;2.85;1.20;;;8.20;96.10;;;;;;4951527;29;20039;-64
2021/01/22 02:25:25;;;;;;;3.83;1.40;;;8.20;96.00;;;;;;4951873;28;20050;-64
2021/01/22 02:27:51;;;;;;;3.75;1.27;;;8.00;96.60;;;;;;4951774;29;20572;-64
2021/01/22 02:30:17;;;;;;;4.80;1.42;;;7.80;96.60;;;;;;4951699;29;20031;-65
2021/01/22 02:32:45;;;;;;;4.25;1.30;;;8.20;95.80;;;;;;4935261;29;20044;-64
2021/01/22 02:35:13;;;;;;;3.28;1.20;;;8.00;96.10;;;;;;4951687;28;20182;-64
2021/01/22 02:37:41;;;;;;;3.47;1.30;;;7.90;96.60;;;;;;4951655;29;20039;-65
2021/01/22 02:40:09;;;;;;;3.60;1.15;;;7.70;96.80;;;;;;4951794;29;20464;-65
2021/01/22 02:42:38;;;;;;;2.95;1.20;;;7.50;96.90;;;;;;4951412;29;20031;-65
2021/01/22 02:45:05;;;;;;;3.15;1.17;;;7.40;97.40;;;;;;4951525;28;20023;-64
2021/01/22 02:47:31;;;;;;;5.90;1.15;;;7.40;97.30;;;;;;4950613;28;20498;-64
2021/01/22 02:49:57;;;;;;;6.07;1.30;;;7.30;97.40;;;;;;4951397;29;20074;-64
2021/01/22 02:52:22;;;;;;;4.07;1.27;;;7.80;96.60;;;;;;4951482;28;20031;-64
2021/01/22 02:54:51;;;;;;;4.32;1.42;;;7.70;96.60;;;;;;4992317;28;20034;-65
2021/01/22 02:57:24;;;;;;;3.13;1.30;;;7.50;96.90;;;;;;4992526;28;20033;-65
2021/01/22 03:00:01;;;;;;;3.50;1.20;;;7.70;96.80;;;;;;4992504;28;20033;-64
2021/01/22 03:02:44;;;;;;;3.17;1.02;;;7.70;96.60;;;;;;4992258;28;20105;-64
2021/01/22 03:05:14;;;;;;;3.22;1.30;;;7.70;96.40;;;;;;4992578;28;20038;-65
2021/01/22 03:07:46;;;;;;;3.35;1.20;;;8.20;95.60;;;;;;4992515;28;20088;-64
2021/01/22 03:10:13;;;;;;;5.05;1.45;;;8.50;94.90;;;;;;4992369;28;20030;-65
2021/01/22 03:12:40;;;;;;;2.65;1.10;;;8.50;94.80;;;;;;4992038;28;20034;-65
2021/01/22 03:15:06;;;;;;;2.90;1.25;;;8.20;95.10;;;;;;4992057;28;20022;-64
2021/01/22 03:17:31;;;;;;;2.60;1.13;;;8.30;95.00;;;;;;4992356;28;20023;-64
2021/01/22 03:19:57;;;;;;;2.40;0.95;;;8.50;94.60;;;;;;4992182;28;20026;-64
2021/01/22 03:22:23;;;;;;;2.88;0.88;;;8.80;93.90;;;;;;4991841;28;20038;-64
2021/01/22 03:24:48;;;;;;;4.00;1.00;;;8.90;93.80;;;;;;4992056;28;20034;-65
2021/01/22 03:27:15;;;;;;;2.17;0.82;;;8.80;93.90;;;;;;4990898;28;20489;-64
2021/01/22 03:29:41;;;;;;;1.52;0.80;;;9.00;93.40;;;;;;4991873;28;20077;-64
2021/01/22 03:32:08;;;;;;;2.22;0.93;;;9.20;93.00;;;;;;4991634;28;20362;-64
2021/01/22 03:34:34;;;;;;;2.88;1.00;;;9.20;92.80;;;;;;4991803;28;20077;-64
2021/01/22 03:37:01;;;;;;;2.33;0.82;;;9.30;92.50;;;;;;4991788;28;20034;-64
2021/01/22 03:39:27;;;;;;;2.80;0.90;;;9.40;92.20;;;;;;4991842;28;20019;-64
2021/01/22 03:41:53;;;;;;;2.78;0.90;;;9.20;92.80;;;;;;4991515;28;20026;-64
2021/01/22 03:44:19;;;;;;;1.83;0.93;;;9.00;93.40;;;;;;4991667;28;20065;-64
2021/01/22 03:46:46;;;;;;;2.58;1.00;;;8.90;93.80;;;;;;4991639;28;20015;-64
2021/01/22 03:49:12;;;;;;;2.00;0.70;;;9.30;93.00;;;;;;4991568;28;20061;-64
2021/01/22 03:51:37;;;;;;;2.25;0.77;;;9.50;92.40;;;;;;4991417;28;20500;-65
2021/01/22 03:54:04;;;;;;;2.60;0.93;;;9.60;92.30;;;;;;4991295;28;20034;-64
2021/01/22 03:56:31;;;;;;;2.45;0.98;;;9.60;92.40;;;;;;4990308;28;20026;-65
2021/01/22 03:58:57;;;;;;;4.20;0.93;;;9.50;92.50;;;;;;4991347;28;20022;-64
2021/01/22 04:01:22;;;;;;;2.70;0.90;;;9.50;92.70;;;;;;4991486;28;20397;-65
2021/01/22 04:03:48;;;;;;;2.38;0.90;;;9.40;92.70;;;;;;4991229;28;20504;-65
2021/01/22 04:06:15;;;;;;;1.85;0.70;;;9.50;92.60;;;;;;4991462;28;20058;-64
2021/01/22 04:08:40;;;;;;;2.92;0.80;;;9.50;92.40;;;;;;4990112;28;20374;-64
2021/01/22 04:11:06;;;;;;;2.85;0.95;;;9.40;93.00;;;;;;4991405;28;20096;-64
2021/01/22 04:13:32;;;;;;;2.55;0.90;;;9.20;93.40;;;;;;4990966;28;20401;-65
2021/01/22 04:15:59;;;;;;;2.38;0.93;;;8.90;94.30;;;;;;4991355;28;20030;-65
2021/01/22 04:18:24;;;;;;;2.58;1.00;;;8.70;94.40;;;;;;4991374;28;20026;-64
2021/01/22 04:20:50;;;;;;;2.90;0.85;;;8.90;94.10;;;;;;4991260;28;20030;-65
2021/01/22 04:23:15;;;;;;;1.85;0.80;;;8.90;94.30;;;;;;4991082;28;20030;-65
2021/01/22 04:25:41;;;;;;;3.88;0.90;;;8.80;94.60;;;;;;4991273;28;20104;-65
2021/01/22 04:28:06;;;;;;;1.23;0.73;;;8.70;94.70;;;;;;4991270;28;20040;-64
2021/01/22 04:30:32;;;;;;;3.70;1.00;;;8.60;95.20;;;;;;4991215;28;20022;-65
2021/01/22 04:32:57;;;;;;;4.13;1.02;;;8.70;95.00;;;;;;4990998;28;20101;-64
2021/01/22 04:35:23;;;;;;;4.88;0.90;;;8.70;95.10;;;;;;4993453;28;20030;-65
2021/01/22 04:37:48;;;;;;;1.55;0.50;;;9.00;94.30;;;;;;5000581;28;20039;-65
2021/01/22 04:40:16;;;;;;;2.20;0.75;;;9.30;93.60;;;;;;4999606;28;20443;-65
2021/01/22 04:42:43;;;;;;;1.77;0.63;;;9.40;93.50;;;;;;4997020;28;20512;-65
2021/01/22 04:45:10;;;;;;;1.52;0.70;;;9.60;93.20;;;;;;5000223;28;20470;-65
2021/01/22 04:47:38;;;;;;;3.30;1.02;;;9.50;93.50;;;;;;5001395;28;20172;-65
2021/01/22 04:50:04;;;;;;;3.42;1.05;;;9.40;93.70;;;;;;4999666;28;20551;-65
2021/01/22 04:52:32;;;;;;;2.35;0.85;;;9.40;93.50;;;;;;4999790;28;20018;-65
2021/01/22 04:54:59;;;;;;;3.58;0.80;;;9.60;93.10;;;;;;5001102;28;20025;-65
2021/01/22 04:57:27;;;;;;;3.90;0.82;;;9.70;92.90;;;;;;4999952;28;20046;-65
2021/01/22 04:59:53;;;;;;;2.05;0.82;;;9.70;93.00;;;;;;5010733;28;20456;-65
2021/01/22 05:02:19;;;;;;;2.20;0.85;;;9.50;93.20;;;;;;5010284;28;20101;-65
2021/01/22 05:04:45;;;;;;;2.05;0.80;;;9.40;93.70;;;;;;5010401;28;20161;-65
2021/01/22 05:07:11;;;;;;;2.50;1.00;;;9.30;94.10;;;;;;5010484;28;20057;-65
2021/01/22 05:09:38;;;;;;;3.95;1.02;;;9.20;94.30;;;;;;5010825;28;20611;-65
2021/01/22 05:12:04;;;;;;;2.15;1.00;;;9.30;94.00;;;;;;5013717;28;20076;-65
2021/01/22 05:14:30;;;;;;;3.97;1.00;;;9.30;94.00;;;;;;5013823;28;20485;-65
2021/01/22 05:17:06;;;;;;;1.25;0.55;;;9.10;94.10;;;;;;5013964;28;20037;-65
2021/01/22 05:19:33;;;;;;;3.00;0.88;;;9.40;93.50;;;;;;5014197;28;20511;-65
2021/01/22 05:22:01;;;;;;;2.80;0.85;;;9.30;93.90;;;;;;5013724;28;20026;-65
2021/01/22 05:24:27;;;;;;;2.05;0.85;;;9.40;93.50;;;;;;5013913;28;20038;-65
2021/01/22 05:27:01;;;;;;;3.53;1.10;;;9.50;93.30;;;;;;5014060;28;20018;-65
2021/01/22 05:29:28;;;;;;;1.65;0.80;;;9.70;92.80;;;;;;5013845;28;20038;-65
2021/01/22 05:31:54;;;;;;;2.63;1.20;;;9.70;93.20;;;;;;5013772;28;20539;-65
2021/01/22 05:34:19;;;;;;;3.30;0.95;;;9.80;92.80;;;;;;5013935;28;20030;-65
2021/01/22 05:36:47;;;;;;;3.25;0.80;;;9.90;92.60;;;;;;5013810;28;20092;-65
2021/01/22 05:39:21;;;;;;;2.45;0.80;;;9.80;92.80;;;;;;5013763;28;20050;-65
2021/01/22 05:41:51;;;;;;;5.65;1.23;;;9.70;92.90;;;;;;5013277;28;20034;-65
2021/01/22 05:44:25;;;;;;;3.13;1.00;;;10.00;92.30;;;;;;5013298;28;20029;-65
2021/01/22 05:47:10;;;;;;;3.53;1.20;;;10.20;92.00;;;;;;5028582;28;20587;-65
2021/01/22 05:49:57;;;;;;;5.60;1.30;;;9.90;92.50;;;;;;5013286;28;20026;-65
2021/01/22 05:52:24;;;;;;;3.42;1.20;;;9.90;92.30;;;;;;5012931;28;20058;-65
2021/01/22 05:54:50;;;;;;;3.40;1.10;;;9.80;92.60;;;;;;5012999;28;20029;-65
2021/01/22 05:57:15;;;;;;;5.07;1.15;;;9.70;93.00;;;;;;5013685;28;20033;-65
2021/01/22 05:59:41;;;;;;;2.63;0.80;;;9.60;93.10;;;;;;5011780;28;20018;-65
2021/01/22 06:02:29;;;;;;;3.70;0.90;;;9.70;92.90;;;;;;5012824;28;20022;-65
2021/01/22 06:05:15;;;;;;;4.22;1.17;;;9.60;93.00;;;;;;5013292;28;20028;-65
2021/01/22 06:07:44;;;;;;;4.47;1.00;;;9.50;93.10;;;;;;5012937;28;20050;-65
2021/01/22 06:10:15;;;;;;;3.15;0.90;;;9.60;92.90;;;;;;5012829;28;20037;-64
2021/01/22 06:12:47;;;;;;;5.95;1.23;;;9.70;92.40;;;;;;5012952;28;20172;-64
2021/01/22 06:15:16;;;;;;;4.55;1.20;;;9.80;92.40;;;;;;5011384;28;20031;-65
2021/01/22 06:17:46;;;;;;;3.65;0.75;;;9.60;92.80;;;;;;5012594;28;20504;-65
2021/01/22 06:20:15;;;;;;;3.80;1.05;;;9.40;93.20;;;;;;5012771;28;20091;-65
2021/01/22 06:22:46;;;;;;;4.05;0.90;;;9.70;92.70;;;;;;5012420;28;20040;-65
2021/01/22 06:25:12;;;;;;;3.55;0.80;;;9.70;92.60;;;;;;5012557;28;20030;-64
2021/01/22 06:27:39;;;;;;;3.33;1.08;;;9.90;92.30;;;;;;5011162;28;20115;-63
2021/01/22 06:30:08;;;;;;;3.40;0.90;;;9.70;92.70;;;;;;5012445;28;20032;-64
2021/01/22 06:32:36;;;;;;;3.53;1.58;;;9.60;92.90;;;;;;5012171;28;20431;-64
2021/01/22 06:35:02;;;;;;;3.15;0.90;;;9.50;93.20;;;;;;5011102;28;20038;-63
2021/01/22 06:37:29;;;;;;;4.15;1.00;;;9.90;92.30;;;;;;5012423;28;20080;-64
2021/01/22 06:39:56;;;;;;;2.47;0.57;;;10.00;92.10;;;;;;5012348;28;20030;-65
2021/01/22 06:42:22;;;;;;;4.75;0.90;;;10.00;92.00;;;;;;5012002;28;20066;-64
2021/01/22 06:44:48;;;;;;;2.88;0.73;;;10.00;92.00;;;;;;5012202;28;20060;-65
2021/01/22 06:47:13;;;;;;;3.22;0.90;;;10.10;91.60;;;;;;5012199;28;20485;-64
2021/01/22 06:49:39;;;;;;;2.85;0.80;;;10.10;91.70;;;;;;5012107;28;20080;-65
2021/01/22 06:52:13;;;;;;;2.85;0.73;;;9.90;92.20;;;;;;5011997;28;20026;-63
2021/01/22 06:54:56;;;;;;;4.43;1.00;;;9.90;92.00;;;;;;5011917;28;20034;-63
2021/01/22 06:57:22;;;;;;;7.45;1.10;;;9.70;92.50;;;;;;5012051;28;20030;-64
2021/01/22 06:59:48;;;;;;;4.00;1.13;;;9.60;92.60;;;;;;5010727;28;20088;-65
2021/01/22 07:02:32;;;;;;;7.10;1.00;;;9.50;92.90;;;;;;5011701;28;20105;-64
2021/01/22 07:04:57;;;;;;;4.07;0.95;;;9.70;92.40;;;;;;5011857;28;20404;-64
2021/01/22 07:07:46;;;;;;;3.75;0.88;;;9.80;92.40;;;;;;5011785;28;20026;-64
2021/01/22 07:10:11;;;;;;;6.90;0.80;;;9.70;92.10;;;;;;5011800;28;20021;-64
2021/01/22 07:12:37;;;;;;;3.50;1.13;;;9.90;91.80;;;;;;5011531;28;20680;-63
2021/01/22 07:15:24;;;;;;;5.63;1.08;;;10.00;91.70;;;;;;5011647;28;20022;-64
2021/01/22 07:18:00;;;;;;;2.05;0.70;;;10.20;91.40;;;;;;5011639;28;20022;-63
2021/01/22 07:20:28;;;;;;;5.93;1.17;;;10.20;91.40;;;;;;5011612;28;20022;-64
2021/01/22 07:22:55;;;;;;;4.05;0.77;;;10.10;91.40;;;;;;5011425;28;20088;-64
2021/01/22 07:25:38;;;;;;;3.05;1.10;;;10.20;91.30;;;;;;5011459;28;20117;-64
2021/01/22 07:28:20;;;;;;;6.97;1.20;;;10.20;91.40;;;;;;4986948;28;20027;-64
2021/01/22 07:30:46;;;;;;;6.03;1.08;;;10.30;91.60;;;;;;4971121;28;20081;-63
2021/01/22 07:33:30;;;;;;;5.38;1.00;;;10.00;92.20;;;;;;4971894;28;20030;-64
2021/01/22 07:36:06;;;;;;;3.95;0.80;;;10.10;91.90;;;;;;4972472;28;20081;-63
2021/01/22 07:38:33;;;;;;;6.72;1.20;;;10.10;92.10;;;;;;4973065;28;20034;-63
2021/01/22 07:40:59;;;;;;;2.28;0.55;;;10.00;92.20;;;;;;4988378;28;20034;-63
2021/01/22 07:43:25;;;;;;;2.90;0.90;;;9.90;92.40;;;;;;4991510;28;20026;-64
2021/01/22 07:46:09;;;;;;;4.85;1.13;;;9.90;92.50;;;;;;4991872;28;20030;-63
2021/01/22 07:48:36;;;;;;;4.00;0.80;;;10.00;92.50;;;;;;4992307;28;20026;-64
2021/01/22 07:51:30;;;;;;;4.72;1.08;;;10.00;92.50;;;;;;4990464;28;20037;-64
2021/01/22 07:53:57;;;;;;;3.90;0.95;;;10.10;92.30;;;;;;4990732;28;20038;-64
2021/01/22 07:56:31;;;;;;;4.00;1.52;;;10.20;91.90;;;;;;4991473;28;20081;-64
2021/01/22 07:58:56;;;;;;;5.43;1.10;;;10.20;92.00;;;;;;4991425;28;20027;-64
2021/01/22 08:01:24;;;;;;;3.85;0.98;;;10.20;92.10;;;;;;4991745;28;20481;-63
2021/01/22 08:03:50;;;;;;;4.78;1.30;;;10.10;92.30;;;;;;4991224;28;20504;-64
2021/01/22 08:06:16;;;;;;;3.45;0.77;;;10.00;92.40;;;;;;4991483;28;20027;-64
2021/01/22 08:08:41;;;;;;;3.28;0.90;;;10.20;92.10;;;;;;4991489;28;20034;-64
2021/01/22 08:11:19;;;;;;;4.22;0.93;;;10.20;92.10;;;;;;4991356;28;20401;-64
2021/01/22 08:13:46;;;;;;;4.82;1.10;;;10.20;92.20;;;;;;4991144;28;20026;-64
2021/01/22 08:16:20;;;;;;;2.22;0.80;;;10.20;92.10;;;;;;4991856;28;20358;-64
2021/01/22 08:18:46;;;;;;;3.00;0.80;;;10.30;92.10;;;;;;4991298;28;20025;-64
2021/01/22 08:21:11;;;;;;;6.63;1.13;;;10.30;92.00;;;;;;4991250;28;20561;-64
2021/01/22 08:23:42;;;;;;;4.03;1.23;;;10.30;92.20;;;;;;4989748;28;20030;-64
2021/01/22 08:26:10;;;;;;;2.53;0.70;;;10.40;91.80;;;;;;4991279;28;20053;-64
2021/01/22 08:28:36;;;;;;;4.30;1.10;;;10.40;91.70;;;;;;4991179;28;20412;-64
2021/01/22 08:31:02;;;;;;;4.93;1.08;;;10.40;91.90;;;;;;4991101;28;20037;-64
2021/01/22 08:33:28;;;;;;;4.40;1.08;;;10.30;92.10;;;;;;4990843;28;20026;-64
2021/01/22 08:35:54;;;;;;;4.78;1.00;;;10.30;92.10;;;;;;4991467;28;20029;-64
2021/01/22 08:38:20;;;;;;;4.50;1.30;;;10.50;91.60;;;;;;4991159;28;20512;-64
2021/01/22 08:40:46;;;;;;;6.63;1.50;;;10.40;91.70;;;;;;4991441;28;20038;-64
2021/01/22 08:43:15;;;;;;;4.85;0.90;;;10.60;91.50;;;;;;4990889;28;20041;-64
2021/01/22 08:45:41;;;;;;;4.63;1.02;;;10.70;91.20;;;;;;4993058;28;20034;-64
2021/01/22 08:48:08;;;;;;;4.18;1.30;;;10.50;91.70;;;;;;4995250;28;20033;-64
2021/01/22 08:50:34;;;;;;;6.30;1.33;;;10.60;91.20;;;;;;4994488;28;20022;-64
2021/01/22 08:53:12;;;;;;;4.47;1.00;;;10.70;91.30;;;;;;4994450;28;20499;-64
2021/01/22 08:55:39;;;;;;;6.28;1.17;;;10.70;90.90;;;;;;4994626;28;20623;-64
2021/01/22 08:58:09;;;;;;;6.05;1.15;;;10.60;91.00;;;;;;4994632;28;20015;-64
2021/01/22 09:00:35;;;;;;;5.90;1.35;;;10.60;90.70;;;;;;4993620;28;20516;-64
2021/01/22 09:03:02;;;;;;;4.75;1.23;;;10.70;90.80;;;;;;4992631;28;20633;-64
2021/01/22 09:05:27;;;;;;;5.43;1.55;;;10.60;90.90;;;;;;4993465;28;20529;-64
2021/01/22 09:08:14;;;;;;;3.47;1.15;;;10.60;91.30;;;;;;4993215;28;20141;-64
2021/01/22 09:10:47;;;;;;;2.40;0.60;;;9.90;93.70;;;;;;4994370;28;20022;-63
2021/01/22 09:13:19;;;;;;;4.20;1.20;;;9.40;94.90;;;;;;4994220;28;20559;-64
2021/01/22 09:15:45;;;;;;;1.17;0.47;;;9.20;95.60;;;;;;4994235;28;20030;-64
2021/01/22 09:18:15;;;;;;;1.33;0.65;;;9.00;95.70;;;;;;4994434;28;20027;-64
2021/01/22 09:20:43;;;;;;;2.35;0.75;;;8.70;96.30;;;;;;4994367;28;20048;-64
2021/01/22 09:23:08;;;;;;;2.88;1.10;;;8.60;96.70;;;;;;4992587;28;20117;-64
2021/01/22 09:25:34;;;;;;;3.05;0.63;;;8.20;99.30;;;;;;4994059;28;20489;-64
2021/01/22 09:28:00;;;;;;;2.95;0.60;;;8.00;99.90;;;;;;4993001;28;20443;-64
2021/01/22 09:30:27;;;;;;;0.82;0.43;;;7.70;99.90;;;;;;4994477;28;20305;-64
2021/01/22 09:32:57;;;;;;;3.67;0.85;;;7.60;99.90;;;;;;4993822;28;20093;-64
2021/01/22 09:35:25;;;;;;;3.28;1.30;;;7.50;99.90;;;;;;4993906;28;20026;-64
2021/01/22 09:37:51;;;;;;;1.17;0.43;;;7.40;99.90;;;;;;4993904;28;20071;-64
2021/01/22 09:40:18;;;;;;;1.50;0.60;;;7.40;99.90;;;;;;4993907;28;20034;-64
2021/01/22 09:42:43;;;;;;;2.38;0.70;;;7.50;99.90;;;;;;4993315;28;20027;-64
2021/01/22 09:45:11;;;;;;;1.40;0.60;;;7.50;99.90;;;;;;4993758;28;20093;-64
2021/01/22 09:47:37;;;;;;;2.22;0.40;;;7.40;99.90;;;;;;4993262;28;20093;-64
2021/01/22 09:50:07;;;;;;;2.90;1.00;;;7.40;99.90;;;;;;4993662;28;20425;-64
2021/01/22 09:52:36;;;;;;;7.88;2.30;;;7.50;99.90;;;;;;4993379;28;20061;-64
2021/01/22 09:55:05;;;;;;;1.88;0.80;;;7.50;99.90;;;;;;4993515;28;20057;-63
2021/01/22 09:57:31;;;;;;;1.35;0.50;;;7.50;99.90;;;;;;4993241;28;20073;-64
2021/01/22 09:59:56;;;;;;;0.50;0.40;;;7.80;99.90;;;;;;4993590;28;20046;-64
2021/01/22 10:02:22;;;;;;;1.45;0.60;;;7.90;99.90;;;;;;4993218;28;20089;-64
2021/01/22 10:04:48;;;;;;;1.98;0.77;;;7.90;99.90;;;;;;4993330;28;20484;-64
2021/01/22 10:07:13;;;;;;;3.13;0.60;;;8.00;99.90;;;;;;4993380;28;20037;-64
2021/01/22 10:09:39;;;;;;;2.42;1.50;;;8.10;99.90;;;;;;4992722;28;20026;-64
2021/01/22 10:12:06;;;;;;;2.47;0.88;;;8.00;99.90;;;;;;4993069;28;20489;-64
2021/01/22 10:14:32;;;;;;;1.83;0.52;;;8.10;99.90;;;;;;4993649;28;20042;-64
2021/01/22 10:16:58;;;;;;;1.27;0.50;;;8.10;99.90;;;;;;4993160;28;20500;-64
2021/01/22 10:19:24;;;;;;;1.63;0.60;;;8.00;99.90;;;;;;4993180;28;20015;-64
2021/01/22 10:21:49;;;;;;;0.95;0.25;;;8.00;99.90;;;;;;4992832;28;20041;-63
2021/01/22 10:24:16;;;;;;;2.30;0.70;;;8.10;99.90;;;;;;4993089;28;20023;-64
2021/01/22 10:26:41;;;;;;;2.67;0.88;;;8.20;99.90;;;;;;4993139;28;20018;-64
2021/01/22 10:29:07;;;;;;;5.47;2.08;;;8.10;99.90;;;;;;4992820;28;20041;-64
2021/01/22 10:31:32;;;;;;;5.63;0.80;;;7.80;99.90;;;;;;4992905;28;20500;-64
2021/01/22 10:33:59;;;;;;;2.20;0.40;;;7.70;99.90;;;;;;4992818;28;20054;-64
2021/01/22 10:36:24;;;;;;;0.47;0.20;;;7.90;99.90;;;;;;4993548;28;20378;-64
2021/01/22 10:38:50;;;;;;;1.40;0.70;;;7.70;99.90;;;;;;4992034;28;20085;-64
2021/01/22 10:41:16;;;;;;;2.10;0.70;;;7.80;99.90;;;;;;4993126;28;20034;-64
2021/01/22 10:43:41;;;;;;;1.10;0.50;;;7.80;99.90;;;;;;4992713;28;20022;-64
2021/01/22 10:46:07;;;;;;;5.25;1.98;;;7.60;99.90;;;;;;4992825;28;20026;-64
2021/01/22 10:48:33;;;;;;;2.08;0.77;;;7.40;99.90;;;;;;4992754;28;20038;-64
2021/01/22 10:50:58;;;;;;;1.23;0.40;;;7.30;99.90;;;;;;4992692;28;20099;-64
2021/01/22 10:53:24;;;;;;;2.90;0.75;;;7.00;99.90;;;;;;4992397;28;20026;-64
2021/01/22 10:55:50;;;;;;;3.65;0.88;;;6.90;99.90;;;;;;4992505;28;20037;-64
2021/01/22 10:58:16;;;;;;;1.25;0.45;;;6.80;99.90;;;;;;4992535;28;20105;-64
2021/01/22 11:00:42;;;;;;;2.92;0.90;;;6.70;99.90;;;;;;4992375;28;20070;-64
2021/01/22 11:03:08;;;;;;;2.78;0.85;;;6.70;99.90;;;;;;4992173;28;20043;-64
2021/01/22 11:05:33;;;;;;;0.85;0.40;;;6.60;99.90;;;;;;4992326;28;20026;-64
2021/01/22 11:07:59;;;;;;;2.15;0.80;;;6.80;99.90;;;;;;4991638;28;20026;-64
2021/01/22 11:10:25;;;;;;;3.72;1.48;;;6.90;99.90;;;;;;4992302;28;20389;-64
2021/01/22 11:12:52;;;;;;;2.38;1.27;;;6.90;99.90;;;;;;4992015;28;20026;-64
2021/01/22 11:15:18;;;;;;;1.27;0.60;;;6.80;99.90;;;;;;4992098;28;20042;-64
2021/01/22 11:17:43;;;;;;;4.22;0.88;;;6.70;99.90;;;;;;4992135;28;20030;-64
2021/01/22 11:20:09;;;;;;;1.63;0.60;;;6.70;99.90;;;;;;4992186;28;20029;-64
2021/01/22 11:22:35;;;;;;;0.68;0.30;;;6.50;99.90;;;;;;4991762;28;20034;-64
2021/01/22 11:25:02;;;;;;;1.02;0.30;;;6.60;99.90;;;;;;4991988;28;20037;-64
2021/01/22 11:27:28;;;;;;;1.33;0.50;;;6.50;99.90;;;;;;4991955;28;20026;-64
2021/01/22 11:29:53;;;;;;;3.30;0.80;;;6.50;99.90;;;;;;4991641;28;20022;-64
2021/01/22 11:32:19;;;;;;;0.30;0.20;;;6.50;99.90;;;;;;4991648;28;20022;-64
2021/01/22 11:34:45;;;;;;;2.33;0.55;;;6.60;99.90;;;;;;4991845;28;20026;-64
2021/01/22 11:37:11;;;;;;;1.75;0.20;;;6.60;99.90;;;;;;4991862;28;20034;-64
2021/01/22 11:39:37;;;;;;;1.23;0.40;;;6.50;99.90;;;;;;4991830;28;20050;-64
2021/01/22 11:42:07;;;;;;;1.63;0.50;;;6.60;99.90;;;;;;4991507;28;20065;-64
2021/01/22 11:44:33;;;;;;;1.38;0.40;;;6.60;99.90;;;;;;4991661;28;20025;-64
2021/01/22 11:46:59;;;;;;;4.40;0.80;;;6.50;99.90;;;;;;4991725;28;20385;-64
2021/01/22 11:49:25;;;;;;;2.67;0.75;;;6.40;99.90;;;;;;4991717;28;20054;-64
2021/01/22 11:51:51;;;;;;;1.15;0.45;;;6.50;99.90;;;;;;4991022;28;20473;-64
2021/01/22 11:54:17;;;;;;;2.83;0.90;;;6.50;99.90;;;;;;4991413;28;20117;-64
2021/01/22 11:56:43;;;;;;;3.78;0.93;;;6.50;99.90;;;;;;4991893;28;20165;-64
2021/01/22 11:59:09;;;;;;;3.42;1.08;;;6.50;99.90;;;;;;4991537;28;20485;-64
2021/01/22 12:01:35;;;;;;;2.83;0.75;;;6.50;99.90;;;;;;4991475;28;20041;-64
2021/01/22 12:04:00;;;;;;;2.97;1.05;;;6.60;99.90;;;;;;4991153;28;20026;-64
2021/01/22 12:06:26;;;;;;;2.35;0.80;;;6.60;99.90;;;;;;4991451;28;20030;-64
2021/01/22 12:08:52;;;;;;;3.25;0.85;;;6.50;99.90;;;;;;4991063;28;20046;-64
2021/01/22 12:11:17;;;;;;;3.00;1.23;;;6.50;99.90;;;;;;4991409;28;20061;-64
2021/01/22 12:13:43;;;;;;;4.78;0.65;;;6.40;99.90;;;;;;4989786;28;20058;-64
2021/01/22 12:16:09;;;;;;;5.00;1.02;;;6.40;99.90;;;;;;4991176;28;20029;-64
2021/01/22 12:18:34;;;;;;;1.27;0.28;;;6.30;99.90;;;;;;4991768;28;20022;-64
2021/01/22 12:21:00;;;;;;;0.82;0.35;;;6.20;99.90;;;;;;4995402;28;20026;-65
2021/01/22 12:23:25;;;;;;;3.25;0.85;;;5.90;99.90;;;;;;4995035;28;20034;-64
2021/01/22 12:25:51;;;;;;;1.67;0.30;;;5.80;99.90;;;;;;4995394;28;20030;-63
2021/01/22 12:28:16;;;;;;;1.50;0.40;;;5.70;99.90;;;;;;4995237;28;20085;-63
2021/01/22 12:30:45;;;;;;;6.75;1.45;;;5.60;99.90;;;;;;4993898;28;20026;-63
2021/01/22 12:33:10;;;;;;;3.10;0.70;;;5.60;99.90;;;;;;4994995;28;20050;-63
2021/01/22 12:35:36;;;;;;;3.25;0.77;;;5.60;99.90;;;;;;4995296;28;20441;-63
2021/01/22 12:38:02;;;;;;;2.60;0.60;;;5.50;99.90;;;;;;4995121;28;20110;-64
2021/01/22 12:40:28;;;;;;;2.90;0.63;;;5.50;99.90;;;;;;4995016;28;20109;-64
2021/01/22 12:42:53;;;;;;;6.18;1.55;;;5.50;99.90;;;;;;4994786;28;20105;-63
2021/01/22 12:45:24;;;;;;;2.28;1.00;;;5.50;99.90;;;;;;4993511;28;20110;-64
2021/01/22 12:47:50;;;;;;;0.57;0.30;;;5.40;99.90;;;;;;4986387;28;20026;-63
2021/01/22 12:50:16;;;;;;;2.78;0.30;;;5.60;99.90;;;;;;4975287;28;20370;-63
2021/01/22 12:52:41;;;;;;;3.35;0.60;;;5.70;99.90;;;;;;4975292;28;20104;-63
2021/01/22 12:55:07;;;;;;;3.92;1.23;;;5.60;99.90;;;;;;4975260;28;20069;-64
2021/01/22 12:57:32;;;;;;;2.72;0.98;;;5.70;99.90;;;;;;4975400;28;20440;-64